Terminal Aerodrome Forecast
Issued by NWS

Home | Current Version | Previous Version | Text Only | Print | Product List | Glossary On
Versions: 1 2 3 4 5 6 7 8 9 10 11 12 13 14 15
754
FTUS43 KAPX 170520
TAFMBL
TAF
KMBL 170520Z 1706/1806 10006KT 3SM -FZRAPL BR FEW008 OVC022
     FM170700 10006KT 3SM -FZRAPL BR FEW008 OVC015
     FM170900 09007KT 3SM -RA BR OVC008
     FM171800 03005KT 5SM -RA BR OVC005
     FM180000 35004KT 6SM -DZ BR OVC007=

USA.gov is the U.S. government's official web portal to all federal, state and local government web resources and services.